Time;durP1;ratioP1;P1;durP2;ratioP2;P2;SDS_P1;SDS_P2;PMS_P1;PMS_P2;Temp;Humidity;BMP_temperature;BMP_pressure;BME280_temperature;BME280_humidity;BME280_pressure;Samples;Min_cycle;Max_cycle;Signal;HPM_P1;HPM_P2
2022/09/10 00:01:01;;;;;;;4.38;3.30;;;16.00;99.90;;;;;;5056397;28;20199;-63
2022/09/10 00:03:28;;;;;;;5.13;3.33;;;15.90;99.90;;;;;;5029373;28;20890;-64
2022/09/10 00:05:55;;;;;;;3.92;2.88;;;16.10;99.90;;;;;;5041113;28;20666;-64
2022/09/10 00:08:22;;;;;;;5.65;3.53;;;16.00;99.90;;;;;;5037225;28;20238;-64
2022/09/10 00:10:51;;;;;;;5.03;3.42;;;16.10;99.90;;;;;;5046890;28;20828;-64
2022/09/10 00:13:20;;;;;;;7.72;3.75;;;12.00;99.90;;;;;;5033117;28;20234;-64
2022/09/10 00:15:49;;;;;;;5.32;3.45;;;16.10;99.90;;;;;;5037038;28;20200;-64
2022/09/10 00:18:19;;;;;;;10.07;3.30;;;16.10;99.90;;;;;;5038526;28;20200;-64
2022/09/10 00:20:47;;;;;;;3.72;3.30;;;16.10;99.90;;;;;;5036081;28;25057;-63
2022/09/10 00:23:15;;;;;;;4.72;3.00;;;16.10;99.90;;;;;;5032641;28;20215;-63
2022/09/10 00:25:42;;;;;;;3.78;2.95;;;16.00;99.90;;;;;;5038173;28;20211;-64
2022/09/10 00:28:10;;;;;;;6.72;2.97;;;16.10;99.90;;;;;;5050754;28;20196;-64
2022/09/10 00:30:40;;;;;;;5.65;3.50;;;16.00;99.90;;;;;;5045151;28;20756;-64
2022/09/10 00:33:07;;;;;;;4.75;3.40;;;16.00;99.90;;;;;;5063808;28;20232;-63
2022/09/10 00:35:34;;;;;;;8.43;3.70;;;16.00;99.90;;;;;;5028861;28;20200;-63
2022/09/10 00:38:01;;;;;;;12.35;3.42;;;16.20;99.90;;;;;;5046170;28;20575;-64
2022/09/10 00:40:28;;;;;;;5.70;3.80;;;16.00;99.90;;;;;;5055068;28;20311;-64
2022/09/10 00:42:55;;;;;;;6.53;3.97;;;16.10;99.90;;;;;;5065308;28;20203;-64
2022/09/10 00:45:26;;;;;;;7.85;3.97;;;16.00;99.90;;;;;;5043677;28;22836;-64
2022/09/10 00:47:56;;;;;;;5.82;3.05;;;16.10;99.90;;;;;;5054932;28;20616;-64
2022/09/10 00:50:26;;;;;;;5.65;3.25;;;15.90;99.90;;;;;;5051487;28;20208;-64
2022/09/10 00:52:56;;;;;;;7.63;3.40;;;16.10;99.90;;;;;;5025099;28;20231;-63
2022/09/10 00:55:24;;;;;;;3.55;2.88;;;16.20;99.90;;;;;;5057000;28;20760;-64
2022/09/10 00:57:54;;;;;;;4.80;3.05;;;16.20;99.90;;;;;;5069554;28;20197;-63
2022/09/10 01:00:22;;;;;;;6.10;3.20;;;16.30;99.90;;;;;;5039783;28;20236;-64
2022/09/10 01:02:50;;;;;;;4.90;2.70;;;16.20;99.90;;;;;;5052222;28;20670;-63
2022/09/10 01:05:19;;;;;;;4.50;3.15;;;16.30;99.90;;;;;;5054308;28;20236;-64
2022/09/10 01:07:47;;;;;;;4.97;3.17;;;16.30;99.90;;;;;;5037476;28;20237;-64
2022/09/10 01:10:17;;;;;;;4.60;3.08;;;16.20;99.90;;;;;;5038672;28;20858;-63
2022/09/10 01:13:04;;;;;;;5.13;3.20;;;16.20;99.90;;;;;;5068733;28;20584;-64
2022/09/10 01:15:39;;;;;;;3.15;2.60;;;16.00;99.90;;;;;;5046530;28;20290;-64
2022/09/10 01:18:24;;;;;;;5.53;3.20;;;16.10;99.90;;;;;;5035636;28;20242;-64
2022/09/10 01:21:15;;;;;;;4.95;2.75;;;16.10;99.90;;;;;;5052336;28;20262;-63
2022/09/10 01:24:04;;;;;;;6.55;2.72;;;16.10;99.90;;;;;;5024427;28;20219;-64
2022/09/10 01:27:04;;;;;;;5.70;3.10;;;16.20;99.90;;;;;;5066764;28;20790;-63
2022/09/10 01:29:37;;;;;;;3.20;2.70;;;16.20;99.90;;;;;;5063719;28;20208;-63
2022/09/10 01:32:14;;;;;;;4.72;3.13;;;16.20;99.90;;;;;;5047039;28;20227;-64
2022/09/10 01:34:45;;;;;;;3.53;3.22;;;16.30;99.90;;;;;;5055623;28;20200;-64
2022/09/10 01:37:20;;;;;;;4.05;3.17;;;16.30;99.90;;;;;;5050338;28;20215;-64
2022/09/10 01:39:48;;;;;;;5.10;3.30;;;16.60;99.90;;;;;;5029110;28;20215;-64
2022/09/10 01:42:15;;;;;;;8.70;3.25;;;16.30;99.90;;;;;;5067768;28;20197;-63
2022/09/10 01:44:46;;;;;;;6.18;3.45;;;16.40;99.90;;;;;;5067821;28;20192;-64
2022/09/10 01:47:20;;;;;;;5.25;3.30;;;18.00;99.90;;;;;;5038097;28;20197;-63
2022/09/10 01:50:00;;;;;;;5.00;3.65;;;16.40;99.90;;;;;;5052989;28;20211;-63
2022/09/10 01:52:37;;;;;;;4.97;3.65;;;16.40;99.90;;;;;;5040306;28;21099;-64
2022/09/10 01:55:13;;;;;;;4.93;3.38;;;12.60;99.90;;;;;;5024891;28;20698;-64
2022/09/10 01:57:51;;;;;;;6.70;3.80;;;16.40;99.90;;;;;;5066709;28;20201;-63
2022/09/10 02:00:21;;;;;;;4.40;4.00;;;16.50;99.90;;;;;;5058882;28;20283;-64
2022/09/10 02:02:53;;;;;;;5.72;3.50;;;18.20;99.90;;;;;;5055440;28;20301;-65
2022/09/10 02:05:23;;;;;;;4.50;4.10;;;16.50;99.90;;;;;;5043798;28;20201;-64
2022/09/10 02:07:54;;;;;;;6.95;4.15;;;16.40;99.90;;;;;;5065566;28;20227;-64
2022/09/10 02:10:21;;;;;;;4.53;4.13;;;16.10;99.90;;;;;;5029373;28;20212;-64
2022/09/10 02:12:48;;;;;;;8.18;4.30;;;;;;;;;;5051298;28;20223;-63
2022/09/10 02:15:18;;;;;;;5.10;3.95;;;16.30;99.90;;;;;;5061331;28;20292;-64
2022/09/10 02:17:48;;;;;;;4.80;4.30;;;16.40;99.90;;;;;;5057588;28;20274;-64
2022/09/10 02:20:15;;;;;;;5.40;4.40;;;16.40;99.90;;;;;;5031472;28;20291;-63
2022/09/10 02:22:47;;;;;;;6.32;3.92;;;16.50;99.90;;;;;;5061813;28;20208;-64
2022/09/10 02:25:15;;;;;;;5.35;4.65;;;16.30;99.90;;;;;;5046085;28;20208;-64
2022/09/10 02:27:43;;;;;;;7.80;4.13;;;16.10;99.90;;;;;;5036548;28;20211;-64
2022/09/10 02:30:10;;;;;;;5.15;4.03;;;16.30;99.90;;;;;;5058975;28;20246;-63
2022/09/10 02:32:37;;;;;;;5.13;4.63;;;16.50;99.90;;;;;;5049716;28;20270;-64
2022/09/10 02:35:07;;;;;;;4.97;4.28;;;16.20;99.90;;;;;;5049314;28;20201;-63
2022/09/10 02:37:34;;;;;;;7.57;4.72;;;16.30;99.90;;;;;;5052117;28;20910;-64
2022/09/10 02:40:01;;;;;;;6.35;4.47;;;16.30;99.90;;;;;;5055636;28;20223;-63
2022/09/10 02:42:28;;;;;;;5.28;4.78;;;16.30;99.90;;;;;;5024570;28;20207;-64
2022/09/10 02:44:55;;;;;;;6.80;5.00;;;16.20;99.90;;;;;;5064734;28;20196;-64
2022/09/10 02:47:22;;;;;;;6.78;4.80;;;16.30;99.90;;;;;;5050051;28;20218;-64
2022/09/10 02:49:48;;;;;;;8.63;4.75;;;16.30;99.90;;;;;;5046836;28;20216;-64
2022/09/10 02:52:17;;;;;;;5.88;4.68;;;16.20;99.90;;;;;;5051822;28;20219;-63
2022/09/10 02:54:43;;;;;;;5.97;4.85;;;16.30;99.90;;;;;;5054364;28;20232;-64
2022/09/10 02:57:11;;;;;;;6.70;4.70;;;16.40;99.90;;;;;;5056132;28;20220;-63
2022/09/10 02:59:37;;;;;;;6.90;4.47;;;16.40;99.90;;;;;;5043713;28;20201;-64
2022/09/10 03:02:04;;;;;;;5.72;4.60;;;16.30;99.90;;;;;;5065760;28;20197;-63
2022/09/10 03:04:31;;;;;;;7.47;4.80;;;16.30;99.90;;;;;;5041466;28;20224;-64
2022/09/10 03:06:58;;;;;;;6.25;4.35;;;16.40;99.90;;;;;;5053880;28;20213;-65
2022/09/10 03:09:27;;;;;;;5.88;4.72;;;16.50;99.90;;;;;;5050700;28;20223;-64
2022/09/10 03:11:54;;;;;;;4.80;4.07;;;16.40;99.90;;;;;;5062149;28;20209;-64
2022/09/10 03:14:23;;;;;;;8.82;5.47;;;16.40;99.90;;;;;;5033161;28;20252;-64
2022/09/10 03:16:50;;;;;;;8.23;4.95;;;14.30;99.90;;;;;;5062409;28;20286;-64
2022/09/10 03:19:17;;;;;;;9.50;4.88;;;16.40;99.90;;;;;;5054502;28;20200;-64
2022/09/10 03:21:46;;;;;;;5.55;4.93;;;16.40;99.90;;;;;;5049323;28;20201;-64
2022/09/10 03:24:13;;;;;;;9.23;5.13;;;16.30;99.90;;;;;;5061946;28;20200;-64
2022/09/10 03:26:42;;;;;;;12.52;4.57;;;16.60;99.90;;;;;;5055583;28;20924;-64
2022/09/10 03:29:09;;;;;;;6.82;4.88;;;16.40;99.90;;;;;;5058862;28;20281;-64
2022/09/10 03:31:36;;;;;;;6.25;5.00;;;16.60;99.90;;;;;;5036387;28;20368;-64
2022/09/10 03:34:02;;;;;;;12.45;5.40;;;16.40;99.90;;;;;;5065128;28;20224;-64
2022/09/10 03:36:30;;;;;;;5.57;5.07;;;16.40;99.90;;;;;;5037062;28;21039;-64
2022/09/10 03:38:58;;;;;;;8.00;5.35;;;16.20;99.90;;;;;;5061201;28;20197;-64
2022/09/10 03:41:25;;;;;;;7.28;5.40;;;16.40;99.90;;;;;;5053834;28;20309;-64
2022/09/10 03:43:54;;;;;;;6.32;5.30;;;16.20;99.90;;;;;;5063572;28;20277;-63
2022/09/10 03:46:21;;;;;;;6.75;5.60;;;16.40;99.90;;;;;;5033553;28;20246;-63
2022/09/10 03:48:48;;;;;;;8.32;5.70;;;16.30;99.90;;;;;;5065731;28;20211;-64
2022/09/10 03:51:15;;;;;;;6.65;6.03;;;16.40;99.90;;;;;;5058048;28;20200;-65
2022/09/10 03:53:43;;;;;;;7.65;5.30;;;16.40;99.90;;;;;;5045368;28;20614;-64
2022/09/10 03:56:10;;;;;;;7.00;5.65;;;16.80;99.90;;;;;;5053945;28;20200;-63
2022/09/10 03:58:37;;;;;;;6.32;5.63;;;16.40;99.90;;;;;;5058620;28;20204;-63
2022/09/10 04:01:06;;;;;;;8.73;5.68;;;16.40;99.90;;;;;;5040504;28;20213;-64
2022/09/10 04:03:33;;;;;;;11.23;6.03;;;16.40;99.90;;;;;;5055213;28;20192;-63
2022/09/10 04:06:00;;;;;;;7.18;5.40;;;16.40;99.90;;;;;;5065418;28;20208;-64
2022/09/10 04:08:27;;;;;;;6.32;5.10;;;16.40;99.90;;;;;;5037896;28;20859;-64
2022/09/10 04:10:55;;;;;;;6.28;4.93;;;16.40;99.90;;;;;;5057722;28;23212;-64
2022/09/10 04:13:22;;;;;;;6.68;5.28;;;16.50;99.90;;;;;;5052133;28;20248;-63
2022/09/10 04:15:49;;;;;;;8.02;5.13;;;16.30;99.90;;;;;;5033350;28;21213;-64
2022/09/10 04:18:17;;;;;;;6.28;5.28;;;16.20;99.90;;;;;;5067336;28;20226;-64
2022/09/10 04:20:46;;;;;;;8.63;5.82;;;16.00;99.90;;;;;;5063730;28;20257;-64
2022/09/10 04:23:13;;;;;;;7.47;6.15;;;16.20;99.90;;;;;;5055239;28;20226;-64
2022/09/10 04:25:40;;;;;;;6.75;5.90;;;16.20;99.90;;;;;;5047400;28;22511;-64
2022/09/10 04:28:08;;;;;;;11.27;6.78;;;16.20;99.90;;;;;;5038830;28;20204;-64
2022/09/10 04:30:35;;;;;;;9.45;6.38;;;16.20;99.90;;;;;;5062545;28;20291;-65
2022/09/10 04:33:01;;;;;;;7.15;5.88;;;16.30;99.90;;;;;;5025222;28;20224;-65
2022/09/10 04:35:30;;;;;;;8.48;5.60;;;16.30;99.90;;;;;;5062434;28;20203;-64
2022/09/10 04:37:57;;;;;;;8.30;5.90;;;;;;;;;;5058276;28;22203;-64
2022/09/10 04:40:24;;;;;;;11.27;7.03;;;16.50;99.90;;;;;;5036983;28;20262;-64
2022/09/10 04:42:50;;;;;;;8.50;6.43;;;16.40;99.90;;;;;;5055849;28;20211;-65
2022/09/10 04:45:18;;;;;;;9.10;5.93;;;16.40;99.90;;;;;;5053992;28;20200;-64
2022/09/10 04:47:45;;;;;;;6.30;5.70;;;16.20;99.90;;;;;;5036557;28;21209;-64
2022/09/10 04:50:13;;;;;;;6.55;5.80;;;16.10;99.90;;;;;;5062514;28;20309;-63
2022/09/10 04:52:42;;;;;;;7.45;6.05;;;16.30;99.90;;;;;;5062177;28;20207;-64
2022/09/10 04:55:09;;;;;;;7.32;6.03;;;16.40;99.90;;;;;;5038528;28;20234;-64
2022/09/10 04:57:36;;;;;;;7.57;5.85;;;16.20;99.90;;;;;;5055661;28;20200;-64
2022/09/10 05:00:03;;;;;;;9.60;6.05;;;16.30;99.90;;;;;;5053823;28;20218;-64
2022/09/10 05:02:30;;;;;;;6.53;5.88;;;14.30;99.90;;;;;;5034559;28;22369;-64
2022/09/10 05:04:57;;;;;;;7.60;5.55;;;16.30;99.90;;;;;;5048529;28;20266;-64
2022/09/10 05:07:24;;;;;;;6.90;5.80;;;16.40;99.90;;;;;;5061716;28;20192;-63
2022/09/10 05:09:52;;;;;;;7.32;6.28;;;16.20;99.90;;;;;;5049575;28;20593;-64
2022/09/10 05:12:19;;;;;;;9.05;6.05;;;16.50;99.90;;;;;;5047620;28;20230;-65
2022/09/10 05:14:47;;;;;;;8.65;5.85;;;16.20;99.90;;;;;;5054453;28;20238;-64
2022/09/10 05:17:14;;;;;;;8.40;5.97;;;16.40;99.90;;;;;;5061966;28;23647;-64
2022/09/10 05:19:41;;;;;;;7.85;6.28;;;16.30;99.90;;;;;;5014415;28;20214;-64
2022/09/10 05:22:08;;;;;;;8.68;5.93;;;16.40;99.90;;;;;;5059280;28;20196;-64
2022/09/10 05:24:35;;;;;;;11.23;5.95;;;16.60;99.90;;;;;;5062051;28;20697;-65
2022/09/10 05:27:03;;;;;;;11.20;6.50;;;16.50;99.90;;;;;;5036506;28;20205;-64
2022/09/10 05:29:30;;;;;;;10.45;6.57;;;16.50;99.90;;;;;;5054021;28;20204;-64
2022/09/10 05:31:57;;;;;;;10.02;6.32;;;16.50;99.90;;;;;;5051790;28;20207;-64
2022/09/10 05:34:23;;;;;;;10.85;6.40;;;18.00;99.90;;;;;;5032643;28;20498;-65
2022/09/10 05:36:50;;;;;;;10.45;7.03;;;16.70;99.90;;;;;;5062067;28;20203;-64
2022/09/10 05:39:17;;;;;;;9.90;6.95;;;16.60;99.90;;;;;;5057909;28;20311;-64
2022/09/10 05:41:44;;;;;;;10.25;6.85;;;16.50;99.90;;;;;;5036252;28;20214;-64
2022/09/10 05:44:13;;;;;;;11.10;7.93;;;16.60;99.90;;;;;;5067011;28;20215;-64
2022/09/10 05:46:41;;;;;;;11.23;6.32;;;12.70;99.90;;;;;;5048728;28;20223;-64
2022/09/10 05:49:08;;;;;;;8.55;6.93;;;16.60;99.90;;;;;;5065315;28;20666;-64
2022/09/10 05:51:35;;;;;;;10.20;7.15;;;16.60;99.90;;;;;;5032236;28;20208;-64
2022/09/10 05:54:02;;;;;;;11.07;7.35;;;16.40;99.90;;;;;;5055773;28;20852;-64
2022/09/10 05:56:30;;;;;;;9.65;7.47;;;16.50;99.90;;;;;;5056138;28;20201;-64
2022/09/10 05:58:57;;;;;;;10.40;7.63;;;16.70;99.90;;;;;;5050245;28;20204;-64
2022/09/10 06:01:25;;;;;;;10.02;7.75;;;16.70;99.90;;;;;;5041907;28;20216;-64
2022/09/10 06:03:52;;;;;;;10.18;7.47;;;16.80;99.90;;;;;;5047939;28;20212;-64
2022/09/10 06:06:20;;;;;;;12.52;8.38;;;16.20;99.90;;;;;;5020781;28;20204;-64
2022/09/10 06:08:51;;;;;;;11.25;8.00;;;16.80;99.90;;;;;;5049707;28;20203;-64
2022/09/10 06:11:17;;;;;;;11.35;7.20;;;16.80;99.90;;;;;;5062780;28;20232;-64
2022/09/10 06:13:44;;;;;;;11.60;7.47;;;17.00;99.90;;;;;;5037053;28;20227;-64
2022/09/10 06:16:11;;;;;;;13.80;8.05;;;17.00;99.90;;;;;;5063204;28;20215;-64
2022/09/10 06:18:39;;;;;;;12.18;8.00;;;17.10;99.90;;;;;;5050172;28;20232;-64
2022/09/10 06:21:09;;;;;;;11.38;8.02;;;18.20;99.90;;;;;;5058461;28;20201;-64
2022/09/10 06:23:36;;;;;;;10.43;8.00;;;16.90;99.90;;;;;;5032124;28;20208;-64
2022/09/10 06:26:04;;;;;;;13.95;8.60;;;17.10;99.90;;;;;;5048688;28;20208;-64
2022/09/10 06:28:32;;;;;;;10.35;8.00;;;16.90;99.90;;;;;;5042645;28;20208;-64
2022/09/10 06:30:59;;;;;;;9.40;7.95;;;17.10;99.90;;;;;;5066360;28;20203;-63
2022/09/10 06:33:26;;;;;;;10.10;8.45;;;17.20;99.90;;;;;;5047324;28;20200;-64
2022/09/10 06:35:56;;;;;;;12.57;8.80;;;17.10;99.90;;;;;;5066396;28;20196;-64
2022/09/10 06:38:23;;;;;;;11.63;7.78;;;17.20;99.90;;;;;;5020941;28;20213;-64
2022/09/10 06:40:54;;;;;;;11.63;8.77;;;17.40;99.90;;;;;;5043324;28;20208;-65
2022/09/10 06:43:23;;;;;;;12.02;9.38;;;17.30;99.90;;;;;;5050480;28;20216;-64
2022/09/10 06:45:51;;;;;;;10.85;8.60;;;17.00;99.90;;;;;;5030618;28;20200;-64
2022/09/10 06:48:20;;;;;;;15.07;8.40;;;17.10;99.90;;;;;;5046617;28;20227;-64
2022/09/10 06:50:52;;;;;;;10.65;8.68;;;17.30;99.90;;;;;;5061646;28;20207;-66
2022/09/10 06:53:21;;;;;;;14.60;9.27;;;17.30;99.90;;;;;;5032015;28;20227;-63
2022/09/10 06:55:49;;;;;;;10.07;8.25;;;17.40;99.90;;;;;;5033131;28;20262;-64
2022/09/10 06:58:16;;;;;;;10.13;8.68;;;17.40;99.90;;;;;;5058596;28;20196;-64
2022/09/10 07:00:44;;;;;;;13.73;8.10;;;16.00;99.90;;;;;;5025496;28;20551;-64
2022/09/10 07:03:11;;;;;;;12.23;9.30;;;17.40;99.90;;;;;;5057845;28;20217;-64
2022/09/10 07:05:37;;;;;;;13.10;9.43;;;17.40;99.90;;;;;;5041675;28;20524;-64
2022/09/10 07:08:05;;;;;;;12.07;9.63;;;17.50;99.90;;;;;;5019007;28;20226;-64
2022/09/10 07:10:36;;;;;;;11.98;9.35;;;17.50;99.90;;;;;;5030157;28;20366;-63
2022/09/10 07:13:02;;;;;;;11.65;10.05;;;17.50;99.90;;;;;;5059721;28;20302;-64
2022/09/10 07:15:29;;;;;;;12.63;9.95;;;17.50;99.90;;;;;;5042383;28;20701;-64
2022/09/10 07:17:56;;;;;;;13.18;9.60;;;17.40;99.90;;;;;;5042502;28;20224;-64
2022/09/10 07:20:24;;;;;;;16.85;10.13;;;17.60;99.90;;;;;;5039955;28;20225;-64
2022/09/10 07:22:52;;;;;;;12.10;9.60;;;17.50;99.90;;;;;;5033834;28;20248;-64
2022/09/10 07:25:19;;;;;;;13.20;10.18;;;17.50;99.90;;;;;;5012186;28;20259;-64
2022/09/10 07:27:47;;;;;;;13.00;10.18;;;17.60;99.90;;;;;;5050836;28;20224;-63
2022/09/10 07:30:14;;;;;;;13.35;9.32;;;18.40;99.90;;;;;;5038972;28;20225;-63
2022/09/10 07:32:41;;;;;;;7.40;4.50;;;17.60;99.90;;;;;;5054850;28;20219;-64
2022/09/10 07:35:09;;;;;;;15.02;10.05;;;17.90;99.90;;;;;;5046396;28;20734;-63
2022/09/10 07:37:37;;;;;;;20.88;10.93;;;17.80;99.90;;;;;;5059889;28;20728;-64
2022/09/10 07:40:05;;;;;;;15.82;9.98;;;17.80;99.90;;;;;;5009286;28;20224;-65
2022/09/10 07:42:32;;;;;;;14.48;10.40;;;17.90;99.90;;;;;;5057059;28;20281;-64
2022/09/10 07:45:00;;;;;;;18.30;10.93;;;17.80;99.90;;;;;;5046373;28;20231;-64
2022/09/10 07:47:27;;;;;;;17.95;11.02;;;;;;;;;;5027871;28;20228;-64
2022/09/10 07:49:55;;;;;;;15.05;11.18;;;17.90;99.90;;;;;;5056315;28;20224;-64
2022/09/10 07:52:22;;;;;;;17.02;11.52;;;18.00;99.90;;;;;;5039202;28;20228;-64
2022/09/10 07:54:49;;;;;;;13.63;10.93;;;18.10;99.90;;;;;;5026711;28;20231;-65
2022/09/10 07:57:16;;;;;;;17.42;11.15;;;;;;;;;;5040858;28;20312;-64
2022/09/10 07:59:43;;;;;;;15.15;11.93;;;17.80;99.90;;;;;;5054627;28;20217;-65
2022/09/10 08:02:14;;;;;;;17.55;13.23;;;18.00;99.90;;;;;;5036313;28;20232;-63
2022/09/10 08:04:40;;;;;;;24.00;14.38;;;18.00;99.90;;;;;;5043961;28;20212;-64
2022/09/10 08:07:07;;;;;;;21.95;13.30;;;17.90;99.90;;;;;;5030309;28;20227;-64
2022/09/10 08:09:34;;;;;;;23.35;14.52;;;17.90;99.90;;;;;;5050041;28;20200;-64
2022/09/10 08:12:01;;;;;;;22.48;13.85;;;18.00;99.90;;;;;;5017090;28;21107;-64
2022/09/10 08:14:27;;;;;;;22.35;13.32;;;17.80;99.90;;;;;;5056090;28;20227;-64
2022/09/10 08:16:54;;;;;;;24.30;14.25;;;17.90;99.90;;;;;;5042489;28;20192;-64
2022/09/10 08:19:23;;;;;;;27.65;16.13;;;17.80;99.90;;;;;;5044110;28;20621;-64
2022/09/10 08:21:50;;;;;;;28.45;15.35;;;17.90;99.90;;;;;;5032126;28;20235;-65
2022/09/10 08:24:17;;;;;;;28.65;15.70;;;17.70;99.90;;;;;;5028297;28;20215;-64
2022/09/10 08:26:44;;;;;;;24.23;16.52;;;18.20;99.90;;;;;;4995449;28;20235;-64
2022/09/10 08:29:11;;;;;;;25.73;15.25;;;18.10;99.90;;;;;;5032825;28;20224;-64
2022/09/10 08:31:38;;;;;;;27.95;14.93;;;18.10;99.90;;;;;;5052599;28;20224;-64
2022/09/10 08:34:05;;;;;;;26.17;16.15;;;18.10;99.90;;;;;;5033865;28;20219;-65
2022/09/10 08:36:33;;;;;;;24.40;15.30;;;18.10;99.90;;;;;;5054984;28;20220;-64
2022/09/10 08:39:00;;;;;;;27.85;14.73;;;18.00;99.90;;;;;;5047024;28;20204;-64
2022/09/10 08:41:35;;;;;;;24.15;15.27;;;17.90;99.90;;;;;;5034840;28;20228;-65
2022/09/10 08:44:06;;;;;;;24.30;14.32;;;17.90;99.90;;;;;;5016841;28;20215;-65
2022/09/10 08:46:37;;;;;;;24.10;14.60;;;17.90;99.90;;;;;;5052487;28;20209;-65
2022/09/10 08:49:07;;;;;;;29.17;14.45;;;;;;;;;;5041275;28;20228;-65
2022/09/10 08:51:40;;;;;;;27.25;16.15;;;18.10;99.90;;;;;;5044227;28;20358;-65
2022/09/10 08:54:13;;;;;;;21.73;13.32;;;19.10;99.90;;;;;;5054241;28;20233;-65
2022/09/10 08:56:41;;;;;;;21.92;14.18;;;18.20;99.90;;;;;;5054528;28;20235;-64
2022/09/10 08:59:20;;;;;;;23.98;14.85;;;18.20;99.90;;;;;;5033887;28;20231;-65
2022/09/10 09:01:51;;;;;;;25.50;16.15;;;18.50;99.90;;;;;;5053528;28;20212;-64
2022/09/10 09:04:27;;;;;;;26.35;15.07;;;18.10;99.90;;;;;;5041934;28;20227;-64
2022/09/10 09:07:00;;;;;;;24.55;14.93;;;18.20;99.90;;;;;;5054654;28;20717;-65
2022/09/10 09:09:27;;;;;;;19.60;14.43;;;18.10;99.90;;;;;;5053745;28;20197;-65
2022/09/10 09:12:02;;;;;;;29.00;15.95;;;18.20;99.90;;;;;;5049586;28;20580;-64
2022/09/10 09:14:47;;;;;;;26.02;15.50;;;18.00;99.30;;;;;;5029663;28;20239;-64
2022/09/10 09:17:37;;;;;;;22.88;16.85;;;18.00;98.90;;;;;;5057261;28;20598;-64
2022/09/10 09:20:14;;;;;;;21.75;15.40;;;18.00;98.90;;;;;;5045222;28;20204;-64
2022/09/10 09:22:50;;;;;;;21.45;15.70;;;17.90;99.60;;;;;;5063428;28;20199;-65
2022/09/10 09:25:23;;;;;;;28.38;16.63;;;17.90;98.30;;;;;;5063571;28;20211;-64
2022/09/10 09:27:53;;;;;;;25.05;16.17;;;18.00;98.20;;;;;;5049827;28;20232;-64
2022/09/10 09:30:22;;;;;;;27.55;15.95;;;18.00;98.30;;;;;;5025693;28;21049;-64
2022/09/10 09:32:50;;;;;;;24.50;15.70;;;17.90;98.50;;;;;;5056839;28;20220;-64
2022/09/10 09:35:25;;;;;;;24.38;16.40;;;17.90;98.00;;;;;;5046299;28;21026;-64
2022/09/10 09:38:08;;;;;;;23.75;16.40;;;17.90;99.80;;;;;;5058441;28;20227;-65
2022/09/10 09:40:43;;;;;;;26.85;16.00;;;17.90;99.80;;;;;;5063489;28;21597;-64
2022/09/10 09:43:22;;;;;;;22.88;15.85;;;18.10;99.90;;;;;;5050757;28;20224;-64
2022/09/10 09:45:52;;;;;;;23.23;15.02;;;18.10;98.80;;;;;;5032267;28;20251;-63
2022/09/10 09:48:21;;;;;;;22.30;15.70;;;17.90;98.20;;;;;;5053254;28;20211;-64
2022/09/10 09:50:50;;;;;;;23.40;14.82;;;18.50;99.60;;;;;;5045113;28;20223;-63
2022/09/10 09:53:22;;;;;;;17.92;14.23;;;18.00;98.60;;;;;;5058108;28;20223;-63
2022/09/10 09:55:53;;;;;;;21.65;15.77;;;18.00;98.50;;;;;;5049774;28;20228;-63
2022/09/10 09:58:33;;;;;;;23.52;15.93;;;18.10;98.90;;;;;;5046951;28;21266;-63
2022/09/10 10:01:13;;;;;;;22.15;15.35;;;18.00;96.80;;;;;;5010978;28;20604;-64
2022/09/10 10:03:47;;;;;;;27.52;15.80;;;18.00;97.40;;;;;;5059177;28;20320;-63
2022/09/10 10:06:15;;;;;;;20.70;15.77;;;18.40;98.50;;;;;;5041315;28;20295;-63
2022/09/10 10:08:46;;;;;;;25.80;15.35;;;18.10;97.20;;;;;;5059396;28;20196;-63
2022/09/10 10:11:15;;;;;;;26.20;16.08;;;18.20;96.80;;;;;;5036261;28;20731;-63
2022/09/10 10:13:43;;;;;;;27.98;15.95;;;18.20;96.40;;;;;;5049010;28;20205;-63
2022/09/10 10:16:19;;;;;;;24.02;15.15;;;18.20;94.70;;;;;;5033296;28;20777;-63
2022/09/10 10:18:46;;;;;;;26.20;15.85;;;18.20;94.00;;;;;;5026000;28;20207;-63
2022/09/10 10:21:15;;;;;;;21.50;15.93;;;18.20;94.50;;;;;;5033011;28;20227;-64
2022/09/10 10:23:44;;;;;;;23.40;15.43;;;18.20;96.60;;;;;;5056873;28;20764;-64
2022/09/10 10:26:29;;;;;;;22.77;15.70;;;18.20;94.60;;;;;;5056916;28;20262;-63
2022/09/10 10:28:59;;;;;;;25.50;14.50;;;18.10;93.50;;;;;;5043925;28;21099;-63
2022/09/10 10:31:36;;;;;;;26.58;15.05;;;18.10;94.20;;;;;;5032288;28;20250;-64
2022/09/10 10:34:23;;;;;;;26.13;15.90;;;18.00;97.40;;;;;;5042411;28;20971;-64
2022/09/10 10:36:59;;;;;;;22.90;15.95;;;18.50;99.70;;;;;;5032269;28;20227;-64
2022/09/10 10:39:43;;;;;;;21.60;15.52;;;18.30;98.90;;;;;;5056035;28;20223;-64
2022/09/10 10:42:14;;;;;;;19.52;15.63;;;;;;;;;;5060513;28;20226;-65
2022/09/10 10:44:58;;;;;;;21.23;16.23;;;18.40;99.90;;;;;;5053968;28;20296;-64
2022/09/10 10:47:39;;;;;;;24.05;15.63;;;18.50;99.90;;;;;;5031247;28;20219;-64
2022/09/10 10:50:21;;;;;;;23.48;15.23;;;18.30;99.90;;;;;;5045869;28;20199;-65
2022/09/10 10:53:05;;;;;;;21.23;14.95;;;18.40;99.90;;;;;;5035828;28;20225;-66
2022/09/10 10:55:38;;;;;;;25.88;16.48;;;18.10;99.90;;;;;;5023607;28;20236;-64
2022/09/10 10:58:32;;;;;;;18.95;15.38;;;18.30;99.90;;;;;;5013472;28;20236;-64
2022/09/10 11:01:05;;;;;;;17.77;15.27;;;18.10;99.90;;;;;;4998113;28;20237;-65
2022/09/10 11:03:41;;;;;;;21.80;16.15;;;18.30;99.90;;;;;;5014598;28;20221;-65
2022/09/10 11:06:13;;;;;;;19.65;15.25;;;18.10;99.90;;;;;;5013497;28;20772;-65
2022/09/10 11:08:46;;;;;;;18.63;14.30;;;18.40;99.90;;;;;;5001748;28;20233;-65
2022/09/10 11:11:18;;;;;;;21.88;14.82;;;18.30;99.90;;;;;;5008222;28;20220;-65
2022/09/10 11:13:50;;;;;;;21.73;13.93;;;18.30;99.90;;;;;;4996134;28;21947;-65
2022/09/10 11:16:24;;;;;;;23.00;15.00;;;18.40;99.90;;;;;;5005966;28;20226;-65
2022/09/10 11:18:56;;;;;;;15.95;12.70;;;18.30;99.80;;;;;;4997482;28;20236;-65
2022/09/10 11:21:30;;;;;;;17.42;14.05;;;18.00;99.60;;;;;;5019993;28;20222;-65
2022/09/10 11:24:00;;;;;;;18.58;13.43;;;18.20;98.70;;;;;;4992172;28;20600;-66
2022/09/10 11:26:33;;;;;;;22.25;16.35;;;18.30;99.40;;;;;;5028271;28;20201;-65
2022/09/10 11:29:20;;;;;;;21.58;15.27;;;18.30;99.90;;;;;;5008135;28;20221;-65
2022/09/10 11:31:52;;;;;;;20.05;15.77;;;18.50;99.90;;;;;;4996287;28;20217;-65
2022/09/10 11:34:26;;;;;;;17.63;14.90;;;18.30;99.90;;;;;;5014046;28;20198;-65
2022/09/10 11:37:00;;;;;;;19.42;15.13;;;18.50;99.90;;;;;;5009795;28;20229;-65
2022/09/10 11:39:33;;;;;;;20.23;14.85;;;18.30;99.90;;;;;;5012784;28;20350;-65
2022/09/10 11:42:07;;;;;;;20.45;14.88;;;18.50;99.90;;;;;;5013625;28;20233;-65
2022/09/10 11:44:47;;;;;;;21.20;14.90;;;18.50;99.90;;;;;;5018780;28;20815;-65
2022/09/10 11:47:19;;;;;;;22.05;15.63;;;18.50;99.90;;;;;;5003315;28;20618;-65
2022/09/10 11:49:52;;;;;;;18.13;14.40;;;18.60;99.90;;;;;;4992226;28;20229;-65
2022/09/10 11:52:21;;;;;;;19.45;14.13;;;18.60;99.90;;;;;;5005839;28;20297;-65
2022/09/10 11:54:48;;;;;;;17.10;12.05;;;18.60;99.90;;;;;;5021035;28;20242;-65
2022/09/10 11:57:27;;;;;;;17.83;12.55;;;18.60;99.90;;;;;;5059447;28;21016;-65
2022/09/10 12:00:07;;;;;;;14.32;12.43;;;18.60;99.90;;;;;;5039366;28;20207;-66
2022/09/10 12:03:04;;;;;;;14.73;12.45;;;18.60;99.90;;;;;;5049585;28;20308;-65
2022/09/10 12:05:39;;;;;;;17.05;12.63;;;18.60;99.90;;;;;;5056689;28;20225;-65
2022/09/10 12:08:19;;;;;;;16.35;12.23;;;18.70;99.90;;;;;;5053976;28;20223;-65
2022/09/10 12:10:58;;;;;;;16.55;13.45;;;18.70;99.90;;;;;;5032251;28;20229;-65
2022/09/10 12:13:26;;;;;;;19.10;14.27;;;18.80;99.90;;;;;;5064778;28;20204;-65
2022/09/10 12:15:56;;;;;;;17.60;14.10;;;18.60;99.90;;;;;;5050097;28;20235;-65
2022/09/10 12:18:26;;;;;;;19.10;14.57;;;18.20;99.90;;;;;;5050544;28;20200;-65
2022/09/10 12:20:58;;;;;;;21.33;14.02;;;18.80;99.90;;;;;;5026387;28;20231;-65
2022/09/10 12:23:28;;;;;;;18.63;13.93;;;18.90;99.90;;;;;;5047581;28;20759;-65
2022/09/10 12:25:59;;;;;;;14.40;10.15;;;18.70;99.90;;;;;;5038063;28;20225;-65
2022/09/10 12:29:00;;;;;;;10.95;7.35;;;18.70;99.90;;;;;;5067754;28;20197;-65
2022/09/10 12:31:27;;;;;;;12.15;7.63;;;18.50;99.90;;;;;;5065925;28;20208;-65
2022/09/10 12:34:17;;;;;;;9.82;8.27;;;18.60;99.90;;;;;;5021094;28;20737;-65
2022/09/10 12:37:21;;;;;;;10.07;8.57;;;18.70;99.90;;;;;;5065228;28;20232;-65
2022/09/10 12:39:49;;;;;;;11.57;8.05;;;18.00;99.90;;;;;;4984246;28;20220;-65
2022/09/10 12:42:31;;;;;;;9.60;8.35;;;18.50;99.90;;;;;;5047093;28;20262;-65
2022/09/10 12:45:00;;;;;;;10.65;8.57;;;;;;;;;;5038773;28;20234;-65
2022/09/10 12:47:39;;;;;;;10.75;8.48;;;18.70;99.90;;;;;;5051900;28;20228;-65
2022/09/10 12:50:16;;;;;;;9.65;8.00;;;17.30;99.90;;;;;;5009285;28;21045;-65
2022/09/10 12:52:54;;;;;;;12.35;10.32;;;18.80;99.90;;;;;;5051234;28;20573;-65
2022/09/10 12:55:27;;;;;;;16.85;12.18;;;18.90;99.90;;;;;;5046869;28;20319;-65
2022/09/10 12:58:05;;;;;;;14.00;12.15;;;18.80;99.90;;;;;;5048984;28;20591;-65